Time;durP1;ratioP1;P1;durP2;ratioP2;P2;SDS_P1;SDS_P2;PMS_P1;PMS_P2;Temp;Humidity;BMP_temperature;BMP_pressure;BME280_temperature;BME280_humidity;BME280_pressure;Samples;Min_cycle;Max_cycle;Signal;HPM_P1;HPM_P2
2023/01/30 00:01:31;;;;;;;13.18;5.57;;;;;;;-142.75;100.00;77761.41;5054437;28;20024;-70
2023/01/30 00:03:56;;;;;;;17.27;5.03;;;;;;;-142.75;100.00;77765.34;5039126;28;20109;-70
2023/01/30 00:06:22;;;;;;;10.13;5.13;;;;;;;-142.75;100.00;77767.31;5036061;28;20129;-70
2023/01/30 00:08:48;;;;;;;16.00;5.13;;;;;;;-142.75;100.00;77759.44;5047552;28;20033;-70
2023/01/30 00:11:15;;;;;;;13.35;5.30;;;;;;;-142.75;100.00;77751.56;5040278;28;20467;-70
2023/01/30 00:13:41;;;;;;;15.30;4.80;;;;;;;-142.75;100.00;77749.59;5033849;28;20029;-69
2023/01/30 00:16:11;;;;;;;13.40;5.22;;;;;;;-142.75;100.00;77745.66;5039826;28;20063;-69
2023/01/30 00:18:38;;;;;;;12.33;4.70;;;;;;;-142.75;100.00;77735.81;5054015;28;20067;-70
2023/01/30 00:21:07;;;;;;;9.33;4.87;;;;;;;-142.75;100.00;77731.88;5053033;28;20068;-70
2023/01/30 00:23:34;;;;;;;19.03;5.87;;;;;;;-142.75;100.00;77723.97;5053584;28;20025;-70
2023/01/30 00:25:59;;;;;;;9.33;4.87;;;;;;;-142.75;100.00;77727.94;5049820;28;20033;-70
2023/01/30 00:28:25;;;;;;;14.30;4.97;;;;;;;-142.75;100.00;77727.94;5034109;28;20022;-70
2023/01/30 00:30:52;;;;;;;14.88;5.32;;;;;;;-142.75;100.00;77727.94;5047634;28;20112;-69
2023/01/30 00:33:18;;;;;;;14.47;4.73;;;;;;;-142.75;100.00;77720.03;5048366;28;20033;-69
2023/01/30 00:35:45;;;;;;;20.10;5.13;;;;;;;-142.75;100.00;77720.03;5033600;28;20496;-70
2023/01/30 00:38:11;;;;;;;19.80;5.83;;;;;;;-142.75;100.00;77716.09;5040266;28;20029;-70
2023/01/30 00:40:36;;;;;;;10.55;4.68;;;;;;;-142.75;100.00;77704.28;5053479;28;20025;-69
2023/01/30 00:48:31;;;;;;;10.53;4.40;;;;;;;-142.75;100.00;77704.28;5033385;28;20035;-70
2023/01/30 00:50:57;;;;;;;12.05;3.92;;;;;;;-142.75;100.00;77698.38;5032284;28;20473;-70
2023/01/30 00:53:22;;;;;;;17.40;4.82;;;;;;;-142.75;100.00;77702.31;5040106;28;20029;-69
2023/01/30 00:55:50;;;;;;;13.93;4.32;;;;;;;-142.75;100.00;77702.31;5033552;28;20112;-69
2023/01/30 00:58:15;;;;;;;13.60;4.50;;;;;;;-142.75;100.00;77688.53;5033304;28;20053;-70
2023/01/30 01:00:40;;;;;;;13.02;4.43;;;;;;;-142.75;100.00;77696.41;5043723;28;20522;-70
2023/01/30 01:03:06;;;;;;;;;;;;;;;-142.75;100.00;77692.47;5034906;28;20461;-68
2023/01/30 01:05:32;;;;;;;13.17;4.00;;;;;;;-142.75;100.00;77694.44;5036677;28;20264;-70
2023/01/30 01:07:57;;;;;;;;;;;;;;;-142.75;100.00;77690.50;5045168;28;20034;-70
2023/01/30 01:10:22;;;;;;;9.03;4.07;;;;;;;-142.75;100.00;77692.47;5050610;28;19913;-70
2023/01/30 01:12:48;;;;;;;;;;;;;;;-142.75;100.00;77668.84;5053098;28;20029;-70
2023/01/30 01:15:14;;;;;;;15.30;4.23;;;;;;;-142.75;100.00;77672.78;5042101;28;19917;-70
2023/01/30 01:17:41;;;;;;;12.60;3.33;;;;;;;-142.75;100.00;77672.78;5032969;28;20032;-70
2023/01/30 01:20:07;;;;;;;12.47;4.50;;;;;;;-142.75;100.00;77672.78;5040630;28;20033;-70
2023/01/30 01:22:33;;;;;;;13.13;4.17;;;;;;;-142.75;100.00;77666.88;5051416;28;20480;-70
2023/01/30 01:24:58;;;;;;;10.38;3.70;;;;;;;-142.75;100.00;77678.69;5052146;28;20108;-69
2023/01/30 01:27:23;;;;;;;11.00;3.90;;;;;;;-142.75;100.00;77657.03;5051201;28;20025;-70
2023/01/30 01:29:49;;;;;;;8.75;3.22;;;;;;;-142.75;100.00;77666.88;5040351;28;20021;-70
2023/01/30 01:32:14;;;;;;;11.88;3.58;;;;;;;-142.75;100.00;77672.78;5051613;28;20098;-70
2023/01/30 01:34:39;;;;;;;;;;;;;;;-142.75;100.00;77678.69;5031315;28;20021;-70
2023/01/30 01:37:04;;;;;;;8.70;2.67;;;;;;;-142.75;100.00;77684.59;5041922;28;19912;-70
2023/01/30 01:42:16;;;;;;;7.93;3.23;;;;;;;-142.75;100.00;77694.44;5031002;28;20083;-70
2023/01/30 01:45:10;;;;;;;9.00;2.70;;;;;;;-142.75;100.00;77704.28;5051034;28;20483;-70
2023/01/30 01:47:39;;;;;;;14.97;3.37;;;;;;;-142.75;100.00;77702.31;5030661;28;20102;-69
2023/01/30 01:50:08;;;;;;;11.73;3.20;;;;;;;-142.75;100.00;77698.38;5042613;28;20062;-71
2023/01/30 01:52:33;;;;;;;7.60;2.30;;;;;;;-142.75;100.00;77702.31;5052541;28;20025;-70
2023/01/30 01:55:04;;;;;;;12.32;3.30;;;;;;;-142.75;100.00;77694.44;5047355;28;20451;-69
2023/01/30 01:57:41;;;;;;;10.43;2.73;;;;;;;-142.75;100.00;77690.50;5050009;28;20025;-69
2023/01/30 02:00:10;;;;;;;7.83;2.90;;;;;;;-142.75;100.00;77694.44;5050713;28;20372;-70
2023/01/30 02:02:39;;;;;;;17.77;4.00;;;;;;;-142.75;100.00;77708.22;5051928;28;20498;-70
2023/01/30 02:05:05;;;;;;;11.60;3.00;;;;;;;-142.75;100.00;77706.25;5051375;28;20025;-70
2023/01/30 02:07:56;;;;;;;12.80;3.10;;;;;;;-142.75;100.00;77700.34;5050595;28;20024;-70
2023/01/30 02:10:55;;;;;;;11.73;2.70;;;;;;;-142.75;100.00;77694.44;5051701;28;20526;-70
2023/01/30 02:13:21;;;;;;;13.03;3.20;;;;;;;-142.75;100.00;77696.41;5043977;28;20029;-70
2023/01/30 02:15:46;;;;;;;14.77;3.17;;;;;;;-142.75;100.00;77706.25;5049655;28;20029;-69
2023/01/30 02:18:13;;;;;;;10.75;2.83;;;;;;;-142.75;100.00;77700.34;5050533;28;20024;-70
2023/01/30 02:20:51;;;;;;;12.20;3.50;;;;;;;-142.75;100.00;77696.41;5051995;28;20037;-70
2023/01/30 02:24:00;;;;;;;12.73;3.00;;;;;;;-142.75;100.00;77704.28;5050610;28;20107;-69
2023/01/30 02:26:56;;;;;;;13.33;3.00;;;;;;;-142.75;100.00;77702.31;5036927;28;20036;-70
2023/01/30 02:29:36;;;;;;;9.90;2.60;;;;;;;-142.75;100.00;77690.50;5051244;28;20033;-70
2023/01/30 02:32:12;;;;;;;13.87;2.77;;;;;;;-142.75;100.00;77688.53;5051630;28;20117;-69
2023/01/30 02:35:01;;;;;;;13.17;3.17;;;;;;;-142.75;100.00;77684.59;5051334;28;20017;-70
2023/01/30 02:37:53;;;;;;;10.57;3.17;;;;;;;-142.75;100.00;77674.75;5043172;28;20264;-70
2023/01/30 02:40:25;;;;;;;16.07;2.70;;;;;;;-142.75;100.00;77666.88;5042702;28;20025;-70
2023/01/30 02:43:03;;;;;;;12.20;3.00;;;;;;;-142.75;100.00;77666.88;5051963;28;20447;-70
2023/01/30 02:45:40;;;;;;;13.00;2.87;;;;;;;-142.75;100.00;77668.84;5047117;28;20025;-70
2023/01/30 02:48:06;;;;;;;;;;;;;;;-142.75;100.00;77668.84;5030272;28;20032;-70
2023/01/30 02:50:50;;;;;;;12.13;2.80;;;;;;;-142.75;100.00;77655.06;5031291;28;19921;-70
2023/01/30 02:53:15;;;;;;;7.30;2.00;;;;;;;-142.75;100.00;77655.06;5042298;28;20035;-70
2023/01/30 02:55:41;;;;;;;10.75;3.03;;;;;;;-142.75;100.00;77651.13;5051203;28;20025;-70
2023/01/30 02:58:07;;;;;;;;;;;;;;;-142.75;100.00;77651.13;5031682;28;20516;-69
2023/01/30 03:00:46;;;;;;;10.57;2.43;;;;;;;-142.75;100.00;77651.13;5029837;28;19959;-69
2023/01/30 03:03:29;;;;;;;9.57;2.50;;;;;;;-142.75;100.00;77649.16;5046687;28;20075;-70
2023/01/30 03:06:21;;;;;;;14.23;3.20;;;;;;;-142.75;100.00;77649.16;5045304;28;20028;-70
2023/01/30 03:09:04;;;;;;;12.93;2.57;;;;;;;-142.75;100.00;77639.31;5030110;28;20092;-70
2023/01/30 03:11:57;;;;;;;12.00;3.20;;;;;;;-142.75;100.00;77645.22;5031057;28;20029;-70
2023/01/30 03:14:29;;;;;;;10.57;2.97;;;;;;;-142.75;100.00;77643.25;5030506;28;20036;-70
2023/01/30 03:16:57;;;;;;;13.07;2.13;;;;;;;-142.75;100.00;77645.22;5048952;28;20052;-69
2023/01/30 03:19:23;;;;;;;14.73;3.10;;;;;;;-142.75;100.00;77649.16;5045127;28;20065;-70
2023/01/30 03:21:48;;;;;;;11.48;2.90;;;;;;;-142.75;100.00;77641.28;5030695;28;20044;-69
2023/01/30 03:24:14;;;;;;;;;;;;;;;-142.75;100.00;77633.41;5042975;28;20093;-69
2023/01/30 03:26:45;;;;;;;10.07;2.63;;;;;;;-142.75;100.00;77623.56;5050481;28;19916;-70
2023/01/30 03:29:10;;;;;;;12.77;3.07;;;;;;;-142.75;100.00;77625.53;5052651;28;20020;-69
2023/01/30 03:31:36;;;;;;;10.05;2.75;;;;;;;-142.75;100.00;77621.59;5054540;28;20534;-69
2023/01/30 03:34:01;;;;;;;;;;;;;;;-142.75;100.00;77629.47;5044776;28;20032;-69
2023/01/30 03:36:26;;;;;;;15.17;2.90;;;;;;;-142.75;100.00;77619.63;5034571;28;19912;-69
2023/01/30 03:38:52;;;;;;;10.15;2.55;;;;;;;-142.75;100.00;77615.69;5034529;28;20041;-70
2023/01/30 03:41:17;;;;;;;10.98;3.03;;;;;;;-142.75;100.00;77617.66;5043399;28;20130;-70
2023/01/30 03:43:42;;;;;;;;;;;;;;;-142.75;100.00;77615.69;5054612;28;20630;-70
2023/01/30 03:46:08;;;;;;;15.67;2.93;;;;;;;-142.75;100.00;77619.63;5039457;28;19928;-69
2023/01/30 03:48:33;;;;;;;21.13;2.90;;;;;;;-142.75;100.00;77621.59;5039778;28;20036;-70
2023/01/30 03:50:58;;;;;;;;;;;;;;;-142.75;100.00;77625.53;5041854;28;20021;-70
2023/01/30 03:53:23;;;;;;;12.23;2.33;;;;;;;-142.75;100.00;77617.66;5053762;28;20007;-70
2023/01/30 03:55:49;;;;;;;11.10;2.80;;;;;;;-142.75;100.00;77613.72;5054116;28;20108;-69
2023/01/30 03:58:14;;;;;;;9.60;2.65;;;;;;;-142.75;100.00;77625.53;5047922;28;20073;-69
2023/01/30 04:00:40;;;;;;;6.93;2.63;;;;;;;-142.75;100.00;77609.78;5035643;28;20045;-70
2023/01/30 04:03:06;;;;;;;;;;;;;;;-142.75;100.00;77617.66;5034400;28;20017;-70
2023/01/30 04:05:31;;;;;;;8.17;2.57;;;;;;;-142.75;100.00;77617.66;5032904;28;19919;-71
2023/01/30 04:07:57;;;;;;;15.70;2.80;;;;;;;-142.75;100.00;77627.50;5034199;28;20018;-69
2023/01/30 04:10:23;;;;;;;14.65;2.90;;;;;;;-142.75;100.00;77627.50;5032657;28;20029;-69
2023/01/30 04:12:48;;;;;;;8.15;2.38;;;;;;;-142.75;100.00;77611.75;5033573;28;20100;-69
2023/01/30 04:15:14;;;;;;;;;;;;;;;-142.75;100.00;77603.88;5034728;28;20040;-69
2023/01/30 04:17:39;;;;;;;13.63;3.23;;;;;;;-142.75;100.00;77619.63;5032346;28;19913;-69
2023/01/30 04:20:05;;;;;;;;;;;;;;;-142.75;100.00;77621.59;5032910;28;20025;-69
2023/01/30 04:22:30;;;;;;;10.13;2.23;;;;;;;-142.75;100.00;77623.56;5033610;28;20380;-69
2023/01/30 04:24:55;;;;;;;;;;;;;;;-142.75;100.00;77629.47;5033659;28;20388;-69
2023/01/30 04:27:20;;;;;;;13.83;2.60;;;;;;;-142.75;100.00;77627.50;5034766;28;20303;-69
2023/01/30 04:29:46;;;;;;;13.63;2.35;;;;;;;-142.75;100.00;77633.41;5053436;28;20035;-69
2023/01/30 04:32:11;;;;;;;8.75;2.40;;;;;;;-142.75;100.00;77629.47;5045621;28;20048;-70
2023/01/30 04:34:36;;;;;;;11.68;2.22;;;;;;;-142.75;100.00;77645.22;5033141;28;20029;-70
2023/01/30 04:37:02;;;;;;;12.52;2.13;;;;;;;-142.75;100.00;77662.94;5034859;28;20024;-69
2023/01/30 04:39:27;;;;;;;15.90;2.22;;;;;;;-142.75;100.00;77649.16;5033119;28;20029;-70
2023/01/30 04:41:52;;;;;;;11.32;2.10;;;;;;;-142.75;100.00;77678.69;5050274;28;20029;-70
2023/01/30 04:44:17;;;;;;;;;;;;;;;-142.75;100.00;77672.78;5053314;28;20033;-70
2023/01/30 04:46:43;;;;;;;12.23;1.70;;;;;;;-142.75;100.00;77680.66;5051846;28;19916;-70
2023/01/30 04:49:09;;;;;;;10.23;1.60;;;;;;;-142.75;100.00;77688.53;5053069;28;20025;-70
2023/01/30 04:51:35;;;;;;;6.33;1.50;;;;;;;-142.75;100.00;77700.34;5052998;28;20119;-70
2023/01/30 04:54:00;;;;;;;5.22;1.92;;;;;;;-142.75;100.00;77716.09;5048979;28;20481;-70
2023/01/30 04:56:25;;;;;;;;;;;;;;;-142.75;100.00;77720.03;5037180;28;20557;-70
2023/01/30 04:58:50;;;;;;;5.13;1.50;;;;;;;-142.75;100.00;77729.88;5040170;28;20432;-70
2023/01/30 05:01:28;;;;;;;7.55;1.65;;;;;;;-142.75;100.00;77735.81;5031933;28;20400;-69
2023/01/30 05:03:54;;;;;;;4.93;1.27;;;;;;;-142.75;100.00;77743.69;5032897;28;20630;-69
2023/01/30 05:06:20;;;;;;;6.05;1.27;;;;;;;-142.75;100.00;77735.81;5045599;28;20144;-70
2023/01/30 05:08:55;;;;;;;8.40;1.63;;;;;;;-142.75;100.00;77739.75;5031633;28;20025;-69
2023/01/30 05:11:22;;;;;;;6.83;1.63;;;;;;;-142.75;100.00;77735.81;5031588;28;20075;-69
2023/01/30 05:13:48;;;;;;;6.77;1.20;;;;;;;-142.75;100.00;77737.78;5032280;28;20025;-69
2023/01/30 05:16:14;;;;;;;8.88;1.60;;;;;;;-142.75;100.00;77731.88;5035563;28;20029;-70
2023/01/30 05:18:40;;;;;;;5.57;1.20;;;;;;;-142.75;100.00;77741.72;5052724;28;20031;-70
2023/01/30 05:21:11;;;;;;;6.70;1.55;;;;;;;-142.75;100.00;77753.53;5052709;28;20024;-70
2023/01/30 05:23:37;;;;;;;8.70;1.70;;;;;;;-142.75;100.00;77747.63;5037042;28;20427;-70
2023/01/30 05:26:02;;;;;;;7.43;1.73;;;;;;;-142.75;100.00;77759.44;5049680;28;20029;-70
2023/01/30 05:28:28;;;;;;;7.63;1.63;;;;;;;-142.75;100.00;77783.06;5052412;28;20391;-69
2023/01/30 05:30:54;;;;;;;;;;;;;;;-142.75;100.00;77785.03;5044140;28;20026;-69
2023/01/30 05:33:19;;;;;;;10.73;1.77;;;;;;;-142.75;100.00;77788.97;5032001;28;19924;-69
2023/01/30 05:35:48;;;;;;;9.55;1.88;;;;;;;-142.75;100.00;77806.69;5038341;28;20025;-69
2023/01/30 05:38:14;;;;;;;16.67;1.90;;;;;;;-142.75;100.00;77798.81;5052037;28;20033;-70
2023/01/30 05:40:40;;;;;;;10.48;1.77;;;;;;;-142.75;100.00;77802.75;5052248;28;20039;-70
2023/01/30 05:43:05;;;;;;;;;;;;;;;-142.75;100.00;77816.53;5038509;28;20117;-69
2023/01/30 05:45:31;;;;;;;7.67;1.57;;;;;;;-142.75;100.00;77848.03;5049067;28;19913;-70
2023/01/30 05:47:56;;;;;;;11.85;2.25;;;;;;;-142.75;100.00;77850.00;5050683;28;20507;-68
2023/01/30 05:50:21;;;;;;;;;;;;;;;-142.75;100.00;77850.00;5046470;28;20021;-70
2023/01/30 05:52:46;;;;;;;11.43;1.57;;;;;;;-142.75;100.00;77865.75;5043226;28;19978;-70
2023/01/30 05:55:12;;;;;;;15.77;2.03;;;;;;;-142.75;100.00;77865.75;5051567;28;20137;-69
2023/01/30 05:57:37;;;;;;;;;;;;;;;-142.75;100.00;77869.69;5050776;28;20025;-70
2023/01/30 06:00:04;;;;;;;17.30;2.90;;;;;;;-142.75;100.00;77865.75;5052072;28;19924;-70
2023/01/30 06:02:30;;;;;;;16.97;2.07;;;;;;;-142.75;100.00;77869.69;5051643;28;20051;-70
2023/01/30 06:04:55;;;;;;;10.70;2.03;;;;;;;-142.75;100.00;77848.03;5041422;28;20484;-70
2023/01/30 06:07:20;;;;;;;;;;;;;;;-142.75;100.00;77846.06;5032119;28;20029;-70
2023/01/30 06:09:46;;;;;;;11.70;1.70;;;;;;;-142.75;100.00;77850.00;5031594;28;20335;-69
2023/01/30 06:12:11;;;;;;;16.63;3.33;;;;;;;-142.75;100.00;77871.66;5033286;28;20566;-70
2023/01/30 06:14:36;;;;;;;13.95;2.97;;;;;;;-142.75;100.00;77869.69;5036337;28;20053;-70
2023/01/30 06:17:02;;;;;;;;;;;;;;;-142.75;100.00;77877.56;5031944;28;20056;-70
2023/01/30 06:19:27;;;;;;;16.93;3.20;;;;;;;-142.75;100.00;77889.38;5032402;28;19913;-69
2023/01/30 06:21:52;;;;;;;10.30;1.85;;;;;;;-142.75;100.00;77883.47;5049926;28;20024;-70
2023/01/30 06:24:17;;;;;;;;;;;;;;;-142.75;100.00;77879.53;5051406;28;20080;-69
2023/01/30 06:26:43;;;;;;;14.93;3.13;;;;;;;-142.75;100.00;77895.28;5051238;28;19938;-69
2023/01/30 06:29:08;;;;;;;12.05;1.88;;;;;;;-142.75;100.00;77893.31;5050033;28;20480;-70
2023/01/30 06:31:33;;;;;;;;;;;;;;;-142.75;100.00;77916.97;5031408;28;20504;-70
2023/01/30 06:33:59;;;;;;;15.40;2.63;;;;;;;-142.75;100.00;77934.69;5029740;28;19924;-70
2023/01/30 06:36:24;;;;;;;18.48;2.83;;;;;;;-142.75;100.00;77948.47;5031471;28;20484;-70
2023/01/30 06:38:49;;;;;;;;;;;;;;;-142.75;100.00;77928.78;5033206;28;20053;-70
2023/01/30 06:41:14;;;;;;;15.57;2.00;;;;;;;-142.75;100.00;77936.66;5029856;28;19959;-70
2023/01/30 06:43:41;;;;;;;15.95;2.58;;;;;;;-142.75;100.00;77938.63;5030774;28;20056;-69
2023/01/30 06:46:06;;;;;;;15.90;2.53;;;;;;;-142.75;100.00;77944.53;5039366;28;20025;-70
2023/01/30 06:48:31;;;;;;;19.20;2.47;;;;;;;-142.75;100.00;77958.31;5031164;28;20032;-70
2023/01/30 06:50:57;;;;;;;;;;;;;;;-142.75;100.00;77958.31;5031578;28;20472;-70
2023/01/30 06:53:28;;;;;;;12.63;2.57;;;;;;;-142.75;100.00;77968.16;5038906;28;19916;-69
2023/01/30 06:55:54;;;;;;;16.07;2.00;;;;;;;-142.75;100.00;77985.88;5031007;28;20021;-70
2023/01/30 06:58:19;;;;;;;9.50;2.80;;;;;;;-142.75;100.00;77991.78;5032493;28;20024;-68
2023/01/30 07:00:44;;;;;;;;;;;;;;;-142.75;100.00;77997.69;5046180;28;20036;-70
2023/01/30 07:03:12;;;;;;;16.43;2.37;;;;;;;-142.75;100.00;78009.50;5045867;28;19921;-69
2023/01/30 07:05:38;;;;;;;17.20;2.20;;;;;;;-142.75;100.00;78019.34;5031223;28;20033;-70
2023/01/30 07:08:04;;;;;;;20.60;2.80;;;;;;;-142.75;100.00;78039.03;5043218;28;20331;-69
2023/01/30 07:10:31;;;;;;;14.35;3.03;;;;;;;-142.75;100.00;78037.06;5029769;28;20116;-70
2023/01/30 07:12:56;;;;;;;13.83;2.73;;;;;;;-142.75;100.00;78041.00;5031044;28;20022;-69
2023/01/30 07:15:21;;;;;;;20.38;3.25;;;;;;;-142.75;100.00;78042.97;5031168;28;20059;-70
2023/01/30 07:17:47;;;;;;;;;;;;;;;-142.75;100.00;78035.09;5031789;28;20061;-70
2023/01/30 07:20:12;;;;;;;21.13;1.90;;;;;;;-142.75;100.00;78044.94;5030065;28;20405;-70
2023/01/30 07:22:37;;;;;;;;;;;;;;;-142.75;100.00;78031.16;5031967;28;20045;-70
2023/01/30 07:25:03;;;;;;;15.53;2.27;;;;;;;-142.75;100.00;78041.00;5031288;28;19913;-70
2023/01/30 07:27:28;;;;;;;14.50;2.00;;;;;;;-142.75;100.00;78058.72;5030011;28;20061;-70
2023/01/30 07:29:54;;;;;;;18.13;2.25;;;;;;;-142.75;100.00;78064.66;5029977;28;20029;-70
2023/01/30 07:32:19;;;;;;;;;;;;;;;-142.75;100.00;78037.06;5031652;28;20647;-68
2023/01/30 07:34:45;;;;;;;12.03;1.87;;;;;;;-142.75;100.00;78042.97;5028616;28;19959;-69
2023/01/30 07:37:11;;;;;;;18.30;2.07;;;;;;;-142.75;100.00;78054.81;5031201;28;20400;-70
2023/01/30 07:39:36;;;;;;;14.60;2.75;;;;;;;-142.75;100.00;78042.97;5030846;28;20093;-70
2023/01/30 07:42:02;;;;;;;15.13;2.25;;;;;;;-142.75;100.00;78046.91;5045341;28;20642;-69
2023/01/30 07:44:27;;;;;;;;;;;;;;;-142.75;100.00;78027.22;5049412;28;20073;-70
2023/01/30 07:46:53;;;;;;;10.77;1.43;;;;;;;-142.75;100.00;78041.00;5050391;28;19912;-70
2023/01/30 07:49:18;;;;;;;;;;;;;;;-142.75;100.00;78025.25;5045673;28;20022;-70
2023/01/30 07:51:43;;;;;;;12.13;1.60;;;;;;;-142.75;100.00;78015.41;5030581;28;19968;-70
2023/01/30 07:54:09;;;;;;;9.65;2.13;;;;;;;-142.75;100.00;78025.25;5030555;28;20025;-70
2023/01/30 07:56:34;;;;;;;12.20;1.65;;;;;;;-142.75;100.00;78003.59;5030374;28;20028;-70
2023/01/30 07:58:59;;;;;;;;;;;;;;;-142.75;100.00;77985.88;5031022;28;20026;-70
2023/01/30 08:01:25;;;;;;;18.63;1.90;;;;;;;-142.75;100.00;77993.75;5045881;28;19968;-70
2023/01/30 08:03:50;;;;;;;10.02;1.55;;;;;;;-142.75;100.00;77983.91;5036928;28;20081;-69
2023/01/30 08:06:16;;;;;;;;;;;;;;;-142.75;100.00;77970.13;5032051;28;20052;-70
2023/01/30 08:08:42;;;;;;;17.00;2.47;;;;;;;-142.75;100.00;77983.91;5050106;28;19959;-70
2023/01/30 08:11:08;;;;;;;15.57;2.00;;;;;;;-142.75;100.00;77974.06;5050089;28;20025;-70
2023/01/30 08:13:33;;;;;;;12.63;1.70;;;;;;;-142.75;100.00;77960.28;5048148;28;20040;-67
2023/01/30 08:16:00;;;;;;;13.80;1.73;;;;;;;-142.75;100.00;77954.38;5053122;28;20480;-69
2023/01/30 08:18:27;;;;;;;15.27;2.63;;;;;;;-142.75;100.00;77936.66;5053660;28;20029;-70
2023/01/30 08:20:56;;;;;;;18.77;2.13;;;;;;;-142.75;100.00;77930.75;5052399;28;20056;-69
2023/01/30 08:23:22;;;;;;;11.63;1.90;;;;;;;-142.75;100.00;77909.06;5033321;28;20029;-70
2023/01/30 08:25:47;;;;;;;20.00;2.70;;;;;;;-142.75;100.00;77879.53;5033362;28;20416;-70
2023/01/30 08:28:12;;;;;;;14.30;1.80;;;;;;;-142.75;100.00;77893.31;5037912;28;20029;-69
2023/01/30 08:30:39;;;;;;;;;;;;;;;-142.75;100.00;77877.56;5047909;28;20029;-69
2023/01/30 08:33:04;;;;;;;11.30;1.80;;;;;;;-142.75;100.00;77895.28;5053303;28;20019;-70
2023/01/30 08:35:30;;;;;;;16.23;2.03;;;;;;;-142.75;100.00;77848.03;5053048;28;20100;-70
2023/01/30 08:37:55;;;;;;;14.70;1.90;;;;;;;-142.75;100.00;77857.88;5053243;28;20399;-69
2023/01/30 08:40:20;;;;;;;;;;;;;;;-142.75;100.00;77820.47;5036765;22;20069;-68
2023/01/30 08:42:46;;;;;;;15.32;1.90;;;;;;;-142.75;100.00;77830.31;5011669;28;20320;-65
2023/01/30 08:45:12;;;;;;;12.95;1.77;;;;;;;-142.75;100.00;77824.41;5013364;28;20233;-67
2023/01/30 08:47:37;;;;;;;;;;;;;;;-142.75;100.00;77816.53;5013841;28;20029;-67
2023/01/30 08:50:03;;;;;;;15.50;2.22;;;;;;;-142.75;100.00;77828.34;5013324;28;19920;-68
2023/01/30 08:52:30;;;;;;;13.60;2.20;;;;;;;-142.75;100.00;77822.44;5013144;28;20030;-68
2023/01/30 08:54:56;;;;;;;15.23;2.53;;;;;;;-142.75;100.00;77798.81;5011789;28;20029;-68
2023/01/30 08:57:21;;;;;;;10.25;2.13;;;;;;;-142.75;100.00;77775.19;5013186;28;20029;-68
2023/01/30 08:59:46;;;;;;;;;;;;;;;-142.75;100.00;77779.13;5013595;28;20076;-68
2023/01/30 09:02:12;;;;;;;11.95;1.88;;;;;;;-142.75;100.00;77755.50;5013166;28;19960;-68
2023/01/30 09:04:37;;;;;;;;;;;;;;;-142.75;100.00;77747.63;5013269;28;20075;-68
2023/01/30 09:07:03;;;;;;;10.68;1.83;;;;;;;-142.75;100.00;77783.06;5013103;28;19932;-68
2023/01/30 09:09:29;;;;;;;12.07;1.70;;;;;;;-142.75;100.00;77808.66;5011646;28;20037;-68
2023/01/30 09:11:54;;;;;;;15.60;1.58;;;;;;;-142.75;100.00;77840.16;5011554;28;20072;-67
2023/01/30 09:14:20;;;;;;;10.27;1.67;;;;;;;-142.75;100.00;77885.44;5011341;28;20029;-67
2023/01/30 09:16:46;;;;;;;13.38;2.10;;;;;;;-142.75;100.00;77913.03;5012888;28;20481;-67
2023/01/30 09:19:12;;;;;;;13.95;1.85;;;;;;;-142.75;100.00;77879.53;5012702;28;20026;-68
2023/01/30 09:21:40;;;;;;;12.10;2.05;;;;;;;-142.75;100.00;77905.13;5011654;28;20113;-68
2023/01/30 09:24:05;;;;;;;13.48;1.80;;;;;;;-142.75;100.00;77871.66;5011241;28;20162;-67
2023/01/30 09:26:31;;;;;;;;;;;;;;;-142.75;100.00;77781.09;5012069;28;20116;-67
2023/01/30 09:28:56;;;;;;;11.38;1.27;;;;;;;-142.75;100.00;77828.34;5012534;28;19913;-68
2023/01/30 09:31:21;;;;;;;7.40;1.42;;;;;;;-142.75;100.00;77810.63;5012697;28;20044;-67
2023/01/30 09:33:47;;;;;;;;;;;;;;;-142.75;100.00;77745.66;5012577;28;20022;-68
2023/01/30 09:36:12;;;;;;;11.20;1.50;;;;;;;-142.75;100.00;77716.09;5012470;28;20059;-68
2023/01/30 09:38:37;;;;;;;;;;;;;;;-142.75;100.00;77743.69;5012746;28;20065;-67
2023/01/30 09:41:28;;;;;;;14.50;1.77;;;;;;;-142.75;100.00;77757.47;5011091;28;19921;-68
2023/01/30 09:44:11;;;;;;;9.73;1.63;;;;;;;-142.75;100.00;77802.75;5001895;28;20038;-67
2023/01/30 09:46:47;;;;;;;11.23;1.67;;;;;;;-142.75;100.00;77873.63;5011116;28;20029;-68
2023/01/30 09:49:31;;;;;;;13.98;2.00;;;;;;;-142.75;100.00;77897.25;5012145;28;20077;-67
2023/01/30 09:52:25;;;;;;;11.02;1.50;;;;;;;-142.75;100.00;77922.88;5012250;28;20025;-67
2023/01/30 09:54:59;;;;;;;18.05;2.53;;;;;;;-142.75;100.00;77952.41;5011948;28;20030;-67
2023/01/30 09:57:25;;;;;;;8.73;1.75;;;;;;;-142.75;100.00;77956.34;5012145;28;20500;-68
2023/01/30 10:00:22;;;;;;;12.93;2.15;;;;;;;-142.75;100.00;77952.41;5010693;28;20026;-67
2023/01/30 10:03:08;;;;;;;12.40;2.00;;;;;;;-142.75;100.00;77954.38;4979462;28;20049;-65
2023/01/30 10:05:55;;;;;;;7.60;1.80;;;;;;;-142.75;100.00;77944.53;5012057;28;20033;-67
2023/01/30 10:08:44;;;;;;;15.17;2.20;;;;;;;-142.75;100.00;77944.53;5011345;28;20022;-66
2023/01/30 10:11:25;;;;;;;13.65;2.03;;;;;;;-142.75;100.00;77952.41;4997585;28;20104;-67
2023/01/30 10:14:01;;;;;;;15.00;1.35;;;;;;;-142.75;100.00;77976.03;5010239;28;20489;-68
2023/01/30 10:16:36;;;;;;;12.20;2.35;;;;;;;-142.75;100.00;77966.19;5011719;28;20470;-68
2023/01/30 10:19:22;;;;;;;12.30;1.60;;;;;;;-142.75;100.00;77983.91;5011773;28;20109;-67
2023/01/30 10:22:23;;;;;;;14.63;1.90;;;;;;;-142.75;100.00;77987.84;5011716;28;20032;-68
2023/01/30 10:25:14;;;;;;;14.93;2.33;;;;;;;-142.75;100.00;77978.00;5011413;28;20026;-69
2023/01/30 10:27:53;;;;;;;19.80;2.30;;;;;;;-142.75;100.00;78009.50;4981030;28;20064;-67
2023/01/30 10:30:19;;;;;;;19.13;1.90;;;;;;;-142.75;100.00;77995.72;5010886;28;20116;-67
2023/01/30 10:33:01;;;;;;;;;;;;;;;-142.75;100.00;77999.66;5011797;28;20029;-68
2023/01/30 10:35:31;;;;;;;18.67;2.23;;;;;;;-142.75;100.00;77976.03;5010410;28;20103;-68
2023/01/30 10:38:11;;;;;;;10.90;2.27;;;;;;;-142.75;100.00;77976.03;5011166;28;20034;-67
2023/01/30 10:40:51;;;;;;;15.10;2.37;;;;;;;-142.75;100.00;77962.25;5011111;28;20139;-68
2023/01/30 10:43:28;;;;;;;14.27;2.00;;;;;;;-142.75;100.00;77944.53;5011080;28;20083;-67
2023/01/30 10:46:08;;;;;;;16.60;2.03;;;;;;;-142.75;100.00;77960.28;5010401;28;20030;-68
2023/01/30 10:48:55;;;;;;;17.70;2.20;;;;;;;-142.75;100.00;77968.16;5010967;28;20488;-67
2023/01/30 10:51:30;;;;;;;18.10;2.40;;;;;;;-142.75;100.00;77974.06;5011219;28;20504;-67
2023/01/30 10:54:21;;;;;;;13.10;1.73;;;;;;;-142.75;100.00;77972.09;5009728;28;20026;-68
2023/01/30 10:57:02;;;;;;;16.37;2.47;;;;;;;-142.75;100.00;78001.63;5011248;28;20029;-68
2023/01/30 11:00:04;;;;;;;17.03;2.73;;;;;;;-142.75;100.00;78029.19;5011156;28;20037;-68
2023/01/30 11:02:45;;;;;;;16.50;2.40;;;;;;;-142.75;100.00;78031.16;5011105;28;20025;-67
2023/01/30 11:05:17;;;;;;;15.13;2.77;;;;;;;-142.75;100.00;78052.81;5008600;28;20157;-67
2023/01/30 11:07:44;;;;;;;14.63;1.93;;;;;;;-142.75;100.00;78041.00;5011094;28;20022;-68
2023/01/30 11:10:23;;;;;;;13.13;1.93;;;;;;;-142.75;100.00;78027.22;5010916;28;20122;-68
2023/01/30 11:12:59;;;;;;;15.63;2.50;;;;;;;-142.75;100.00;78039.03;5010402;28;20033;-67
2023/01/30 11:15:38;;;;;;;13.20;2.50;;;;;;;-142.75;100.00;78046.91;5009862;28;20048;-68
2023/01/30 11:18:06;;;;;;;10.83;1.80;;;;;;;-142.75;100.00;78031.16;5008357;28;20061;-68
2023/01/30 11:20:39;;;;;;;20.70;1.87;;;;;;;-142.75;100.00;78019.34;5010790;28;20120;-67
2023/01/30 11:23:22;;;;;;;19.47;1.97;;;;;;;-142.75;100.00;78021.31;5009374;28;20018;-68
2023/01/30 11:25:56;;;;;;;18.63;2.33;;;;;;;-142.75;100.00;78019.34;5009610;28;20025;-68
2023/01/30 11:28:24;;;;;;;15.27;2.23;;;;;;;-142.75;100.00;78029.19;5010925;28;20030;-67
2023/01/30 11:30:59;;;;;;;11.73;1.70;;;;;;;-142.75;100.00;78027.22;5010739;28;20022;-67
2023/01/30 11:33:37;;;;;;;20.30;2.80;;;;;;;-142.75;100.00;78035.09;5009781;28;20030;-67